createdAt,value
2018-11-14T00:00:17.441Z,4.00
2018-11-14T00:02:45.960Z,5.00
2018-11-14T00:05:14.504Z,3.90
2018-11-14T00:07:42.966Z,4.77
2018-11-14T00:10:11.835Z,4.90
2018-11-14T00:12:40.305Z,4.90
2018-11-14T00:15:11.731Z,4.20
2018-11-14T00:17:40.428Z,4.53
2018-11-14T00:20:10.247Z,4.50
2018-11-14T00:22:39.503Z,4.40
2018-11-14T00:25:08.435Z,3.77
2018-11-14T00:27:37.348Z,3.63
2018-11-14T00:30:09.262Z,3.70
2018-11-14T00:32:37.972Z,3.47
2018-11-14T00:35:07.009Z,4.07
2018-11-14T00:37:35.670Z,4.10
2018-11-14T00:40:05.320Z,4.67
2018-11-14T00:42:34.025Z,4.13
2018-11-14T00:45:02.791Z,4.70
2018-11-14T00:47:31.497Z,4.30
2018-11-14T00:50:00.033Z,4.67
2018-11-14T00:52:28.678Z,3.83
2018-11-14T00:54:57.223Z,4.67
2018-11-14T00:57:25.861Z,4.43
2018-11-14T00:59:54.399Z,4.57
2018-11-14T01:02:23.032Z,3.90
2018-11-14T01:04:51.762Z,4.50
2018-11-14T01:07:20.749Z,4.43
2018-11-14T01:09:49.566Z,3.90
2018-11-14T01:12:18.155Z,3.93
2018-11-14T01:14:46.681Z,3.60
2018-11-14T01:17:15.486Z,4.07
2018-11-14T01:19:44.122Z,5.00
2018-11-14T01:22:12.687Z,3.97
2018-11-14T01:24:41.371Z,4.50
2018-11-14T01:27:09.923Z,3.93
2018-11-14T01:29:38.588Z,4.40
2018-11-14T01:32:07.190Z,4.03
2018-11-14T01:34:35.936Z,3.80
2018-11-14T01:37:04.654Z,4.03
2018-11-14T01:39:33.367Z,4.03
2018-11-14T01:42:02.195Z,4.10
2018-11-14T01:44:30.776Z,3.93
2018-11-14T01:46:59.399Z,3.87
2018-11-14T01:49:27.944Z,3.37
2018-11-14T01:51:56.939Z,4.23
2018-11-14T01:54:25.898Z,4.80
2018-11-14T01:56:54.776Z,3.47
2018-11-14T01:59:23.428Z,3.70
2018-11-14T02:01:51.991Z,4.60
2018-11-14T02:04:20.862Z,4.27
2018-11-14T02:06:49.480Z,5.50
2018-11-14T02:09:18.434Z,3.93
2018-11-14T02:11:47.179Z,3.57
2018-11-14T02:14:15.716Z,3.43
2018-11-14T02:16:44.320Z,4.17
2018-11-14T02:19:12.985Z,3.83
2018-11-14T02:21:41.597Z,5.00
2018-11-14T02:24:10.436Z,5.10
2018-11-14T02:26:39.262Z,3.90
2018-11-14T02:29:08.187Z,4.10
2018-11-14T02:31:36.794Z,3.50
2018-11-14T02:34:06.482Z,4.70
2018-11-14T02:36:35.097Z,4.27
2018-11-14T02:39:04.951Z,4.10
2018-11-14T02:41:33.573Z,4.43
2018-11-14T02:44:02.257Z,6.50
2018-11-14T02:46:31.042Z,4.10
2018-11-14T02:48:59.654Z,5.10
2018-11-14T02:51:29.582Z,4.90
2018-11-14T02:53:58.347Z,4.73
2018-11-14T02:56:27.340Z,5.10
2018-11-14T02:58:55.928Z,6.10
2018-11-14T03:01:24.498Z,6.00
2018-11-14T03:03:53.046Z,4.73
2018-11-14T03:06:21.614Z,5.00
2018-11-14T03:08:50.387Z,5.40
2018-11-14T03:11:19.239Z,5.60
2018-11-14T03:13:47.883Z,7.20
2018-11-14T03:16:16.455Z,6.57
2018-11-14T03:18:44.987Z,6.13
2018-11-14T03:21:13.787Z,6.57
2018-11-14T03:23:42.712Z,5.30
2018-11-14T03:26:11.359Z,5.70
2018-11-14T03:28:39.871Z,6.60
2018-11-14T03:31:08.472Z,6.70
2018-11-14T03:33:37.127Z,7.97
2018-11-14T03:36:11.436Z,7.10
2018-11-14T03:38:40.069Z,6.23
2018-11-14T03:41:08.748Z,6.80
2018-11-14T03:43:37.335Z,6.90
2018-11-14T03:46:05.987Z,6.23
2018-11-14T03:48:34.663Z,6.90
2018-11-14T03:51:03.268Z,7.47
2018-11-14T03:53:31.905Z,5.93
2018-11-14T03:56:00.839Z,6.00
2018-11-14T03:58:29.712Z,7.30
2018-11-14T04:00:58.176Z,6.40
2018-11-14T04:03:26.784Z,7.10
2018-11-14T04:05:55.367Z,7.20
2018-11-14T04:08:23.863Z,6.73
2018-11-14T04:10:52.431Z,6.97
2018-11-14T04:13:21.107Z,8.13
2018-11-14T04:15:49.627Z,6.60
2018-11-14T04:18:18.243Z,6.90
2018-11-14T04:20:47.008Z,7.67
2018-11-14T04:23:15.565Z,6.20
2018-11-14T04:25:44.252Z,7.20
2018-11-14T04:28:12.932Z,7.80
2018-11-14T04:30:41.524Z,7.10
2018-11-14T04:33:10.110Z,6.00
2018-11-14T04:35:38.915Z,7.63
2018-11-14T04:38:07.503Z,7.20
2018-11-14T04:40:36.120Z,6.60
2018-11-14T04:43:05.007Z,7.43
2018-11-14T04:45:33.653Z,6.20
2018-11-14T04:48:02.623Z,6.90
2018-11-14T04:50:31.463Z,6.30
2018-11-14T04:52:59.975Z,7.13
2018-11-14T04:55:28.587Z,7.13
2018-11-14T04:57:57.360Z,6.80
2018-11-14T05:00:26.671Z,7.53
2018-11-14T05:02:55.296Z,7.53
2018-11-14T05:05:24.671Z,8.20
2018-11-14T05:07:53.407Z,8.20
2018-11-14T05:10:23.475Z,8.13
2018-11-14T05:12:52.552Z,6.60
2018-11-14T05:15:22.467Z,6.90
2018-11-14T05:17:51.711Z,7.17
2018-11-14T05:20:21.132Z,7.60
2018-11-14T05:22:50.063Z,6.93
2018-11-14T05:25:19.121Z,7.70
2018-11-14T05:27:47.908Z,8.13
2018-11-14T05:30:18.014Z,7.50
2018-11-14T05:32:47.870Z,6.57
2018-11-14T05:35:17.151Z,7.57
2018-11-14T05:37:46.010Z,7.57
2018-11-14T05:40:15.897Z,7.47
2018-11-14T05:42:45.322Z,6.77
2018-11-14T05:45:17.096Z,7.13
2018-11-14T05:47:45.682Z,8.90
2018-11-14T05:50:15.915Z,7.53
2018-11-14T05:52:44.739Z,8.47
2018-11-14T05:55:14.651Z,7.90
2018-11-14T05:57:43.252Z,7.50
2018-11-14T06:00:17.731Z,8.87
2018-11-14T06:02:47.048Z,8.63
2018-11-14T06:05:15.600Z,9.20
2018-11-14T06:07:44.178Z,9.70
2018-11-14T06:10:13.475Z,7.40
2018-11-14T06:12:42.797Z,7.40
2018-11-14T06:15:14.107Z,9.73
2018-11-14T06:17:43.911Z,7.90
2018-11-14T06:20:20.316Z,9.27
2018-11-14T06:22:49.915Z,8.30
2018-11-14T06:25:24.686Z,8.90
2018-11-14T06:27:54.547Z,7.77
2018-11-14T06:30:23.858Z,8.40
2018-11-14T06:32:53.231Z,8.50
2018-11-14T06:35:22.152Z,9.80
2018-11-14T06:37:51.517Z,9.23
2018-11-14T06:40:20.480Z,8.93
2018-11-14T06:42:49.193Z,9.70
2018-11-14T06:45:24.160Z,9.30
2018-11-14T06:47:55.093Z,10.03
2018-11-14T06:50:23.899Z,10.17
2018-11-14T06:52:53.972Z,8.50
2018-11-14T06:55:22.548Z,9.13
2018-11-14T06:57:51.268Z,8.30
2018-11-14T07:00:26.156Z,9.03
2018-11-14T07:02:55.585Z,8.30
2018-11-14T07:05:24.575Z,10.17
2018-11-14T07:07:53.157Z,8.27
2018-11-14T07:10:24.066Z,10.03
2018-11-14T07:12:53.047Z,9.23
2018-11-14T07:15:23.015Z,10.50
2018-11-14T07:17:52.679Z,11.27
2018-11-14T07:20:25.652Z,9.13
2018-11-14T07:22:54.332Z,9.70
2018-11-14T07:25:23.050Z,8.40
2018-11-14T07:27:51.710Z,9.17
2018-11-14T07:30:25.363Z,10.20
2018-11-14T07:33:01.744Z,8.97
2018-11-14T07:35:30.491Z,9.53
2018-11-14T07:38:43.323Z,9.37
2018-11-14T07:41:13.492Z,9.30
2018-11-14T07:43:42.764Z,10.13
2018-11-14T07:46:12.061Z,8.93
2018-11-14T07:48:41.007Z,9.60
2018-11-14T07:51:09.937Z,8.53
2018-11-14T07:53:38.648Z,8.93
2018-11-14T07:56:07.800Z,9.97
2018-11-14T07:58:37.005Z,8.47
2018-11-14T08:01:06.193Z,9.60
2018-11-14T08:03:34.775Z,9.27
2018-11-14T08:06:03.466Z,11.83
2018-11-14T08:08:32.161Z,10.73
2018-11-14T08:11:01.095Z,13.30
2018-11-14T08:13:30.827Z,13.57
2018-11-14T08:16:00.383Z,15.13
2018-11-14T08:18:29.062Z,15.20
2018-11-14T08:20:58.488Z,16.07
2018-11-14T08:23:27.041Z,13.13
2018-11-14T08:25:55.767Z,11.90
2018-11-14T08:28:24.579Z,11.37
2018-11-14T08:30:53.235Z,10.43
2018-11-14T08:33:22.025Z,11.23
2018-11-14T08:35:50.768Z,9.77
2018-11-14T08:38:19.446Z,10.97
2018-11-14T08:40:48.238Z,10.30
2018-11-14T08:43:17.015Z,10.40
2018-11-14T08:45:45.559Z,9.67
2018-11-14T08:48:14.357Z,9.40
2018-11-14T08:50:42.924Z,12.03
2018-11-14T08:53:11.970Z,11.57
2018-11-14T08:55:40.612Z,11.20
2018-11-14T08:58:10.640Z,9.60
2018-11-14T09:00:39.301Z,9.40
2018-11-14T09:03:09.823Z,10.60
2018-11-14T09:05:38.507Z,9.20
2018-11-14T09:08:07.349Z,9.67
2018-11-14T09:10:36.360Z,8.73
2018-11-14T09:13:05.142Z,8.50
2018-11-14T09:15:33.759Z,7.70
2018-11-14T09:18:02.606Z,7.80
2018-11-14T09:20:31.154Z,8.10
2018-11-14T09:22:59.873Z,8.20
2018-11-14T09:25:30.503Z,7.40
2018-11-14T09:28:00.285Z,8.67
2018-11-14T09:30:29.109Z,7.17
2018-11-14T09:32:57.928Z,7.00
2018-11-14T09:35:27.492Z,7.97
2018-11-14T09:37:57.137Z,5.67
2018-11-14T09:40:27.057Z,5.40
2018-11-14T09:42:55.759Z,5.43
2018-11-14T09:45:25.787Z,5.67
2018-11-14T09:47:54.506Z,4.97
2018-11-14T09:50:25.499Z,6.03
2018-11-14T09:52:55.468Z,6.80
2018-11-14T09:55:24.130Z,5.70
2018-11-14T09:57:52.783Z,5.50
2018-11-14T10:00:35.955Z,5.67
2018-11-14T10:03:11.610Z,7.20
2018-11-14T10:05:40.443Z,5.63
2018-11-14T10:08:09.276Z,5.67
2018-11-14T10:10:38.075Z,5.73
2018-11-14T10:13:07.031Z,5.80
2018-11-14T10:15:35.747Z,4.87
2018-11-14T10:18:04.307Z,5.10
2018-11-14T10:20:33.000Z,4.80
2018-11-14T10:23:01.629Z,4.90
2018-11-14T10:25:30.288Z,4.90
2018-11-14T10:27:59.020Z,5.07
2018-11-14T10:30:28.366Z,4.10
2018-11-14T10:32:56.950Z,3.97
2018-11-14T10:35:25.731Z,4.50
2018-11-14T10:37:54.515Z,3.70
2018-11-14T10:40:25.590Z,5.03
2018-11-14T10:42:54.914Z,4.80
2018-11-14T10:45:24.786Z,3.10
2018-11-14T10:47:53.748Z,2.47
2018-11-14T10:50:24.739Z,2.90
2018-11-14T10:52:53.419Z,2.60
2018-11-14T10:55:22.507Z,2.63
2018-11-14T10:57:51.483Z,2.93
2018-11-14T11:00:27.614Z,2.93
2018-11-14T11:03:02.000Z,2.60
2018-11-14T11:05:36.089Z,2.57
2018-11-14T11:08:10.288Z,2.20
2018-11-14T11:10:44.058Z,2.73
2018-11-14T11:13:18.054Z,2.17
2018-11-14T11:15:51.992Z,2.53
2018-11-14T11:18:24.704Z,2.13
2018-11-14T11:20:54.090Z,2.23
2018-11-14T11:23:23.040Z,2.40
2018-11-14T11:25:51.653Z,2.43
2018-11-14T11:28:20.514Z,2.13
2018-11-14T11:30:49.250Z,3.03
2018-11-14T11:33:17.759Z,2.10
2018-11-14T11:35:46.522Z,2.07
2018-11-14T11:38:15.295Z,2.70
2018-11-14T11:40:43.899Z,2.43
2018-11-14T11:43:12.557Z,2.03
2018-11-14T11:45:41.449Z,1.90
2018-11-14T11:48:10.204Z,2.27
2018-11-14T11:50:39.035Z,1.80
2018-11-14T11:53:07.686Z,1.73
2018-11-14T11:55:36.589Z,1.90
2018-11-14T11:58:05.723Z,1.87
2018-11-14T12:00:34.814Z,1.70
2018-11-14T12:03:03.397Z,2.10
2018-11-14T12:05:32.300Z,2.80
2018-11-14T12:08:00.928Z,3.10
2018-11-14T12:10:29.550Z,2.27
2018-11-14T12:12:58.275Z,2.03
2018-11-14T12:15:27.147Z,3.07
2018-11-14T12:17:56.063Z,2.70
2018-11-14T12:20:24.690Z,2.20
2018-11-14T12:22:53.266Z,2.57
2018-11-14T12:25:21.886Z,2.30
2018-11-14T12:27:50.653Z,2.03
2018-11-14T12:30:19.356Z,2.60
2018-11-14T12:32:48.042Z,2.10
2018-11-14T12:35:17.373Z,2.60
2018-11-14T12:37:45.975Z,2.33
2018-11-14T12:40:15.424Z,2.27
2018-11-14T12:42:50.778Z,3.10
2018-11-14T12:45:19.690Z,3.00
2018-11-14T12:47:48.534Z,2.90
2018-11-14T12:50:17.276Z,2.33
2018-11-14T12:52:46.191Z,2.43
2018-11-14T12:55:16.331Z,1.97
2018-11-14T12:57:45.060Z,1.67
2018-11-14T13:00:15.093Z,3.20
2018-11-14T13:02:43.905Z,2.17
2018-11-14T13:05:13.711Z,2.20
2018-11-14T13:07:42.789Z,2.53
2018-11-14T13:10:14.003Z,2.03
2018-11-14T13:12:43.549Z,1.90
2018-11-14T13:15:13.540Z,2.60
2018-11-14T13:17:43.826Z,2.07
2018-11-14T13:20:15.725Z,2.27
2018-11-14T13:22:44.686Z,2.13
2018-11-14T13:25:14.231Z,2.40
2018-11-14T13:27:44.284Z,1.97
2018-11-14T13:30:15.368Z,2.47
2018-11-14T13:32:44.920Z,1.73
2018-11-14T13:35:14.924Z,2.63
2018-11-14T13:37:44.411Z,1.90
2018-11-14T13:40:13.326Z,2.00
2018-11-14T13:42:42.545Z,2.30
2018-11-14T13:45:12.586Z,2.33
2018-11-14T13:47:41.772Z,2.80
2018-11-14T13:50:14.940Z,2.00
2018-11-14T13:52:44.065Z,1.87
2018-11-14T13:55:14.249Z,2.30
2018-11-14T13:57:44.957Z,2.53
2018-11-14T14:00:15.045Z,2.07
2018-11-14T14:02:44.461Z,2.00
2018-11-14T14:05:15.789Z,2.20
2018-11-14T14:07:44.621Z,2.00
2018-11-14T14:10:14.643Z,2.40
2018-11-14T14:12:44.474Z,2.10
2018-11-14T14:15:15.897Z,1.90
2018-11-14T14:17:45.664Z,1.90
2018-11-14T14:20:15.108Z,2.40
2018-11-14T14:22:44.070Z,2.40
2018-11-14T14:25:15.089Z,1.70
2018-11-14T14:27:44.136Z,2.03
2018-11-14T14:30:16.296Z,1.90
2018-11-14T14:32:45.705Z,1.83
2018-11-14T14:35:15.499Z,1.77
2018-11-14T14:37:44.148Z,1.97
2018-11-14T14:40:17.893Z,2.00
2018-11-14T14:42:46.821Z,2.20
2018-11-14T14:45:17.295Z,2.20
2018-11-14T14:47:46.120Z,1.53
2018-11-14T14:50:15.967Z,2.27
2018-11-14T14:52:45.269Z,2.20
2018-11-14T14:55:17.441Z,2.33
2018-11-14T14:57:46.729Z,2.37
2018-11-14T15:00:18.961Z,1.63
2018-11-14T15:02:47.765Z,2.20
2018-11-14T15:05:16.467Z,2.60
2018-11-14T15:07:45.318Z,3.17
2018-11-14T15:10:15.847Z,2.60
2018-11-14T15:12:44.660Z,2.40
2018-11-14T15:15:13.973Z,3.53
2018-11-14T15:17:42.905Z,4.80
2018-11-14T15:20:14.293Z,5.63
2018-11-14T15:22:43.202Z,3.10
2018-11-14T15:25:13.400Z,2.90
2018-11-14T15:27:43.010Z,2.67
2018-11-14T15:30:15.375Z,3.17
2018-11-14T15:32:44.174Z,2.97
2018-11-14T15:35:13.636Z,3.63
2018-11-14T15:37:42.431Z,3.30
2018-11-14T15:40:13.301Z,2.90
2018-11-14T15:42:42.226Z,3.37
2018-11-14T15:45:13.410Z,4.40
2018-11-14T15:47:42.536Z,3.30
2018-11-14T15:50:16.811Z,4.17
2018-11-14T15:52:46.621Z,3.30
2018-11-14T15:55:16.250Z,3.07
2018-11-14T15:57:45.316Z,2.47
2018-11-14T16:00:32.568Z,3.87
2018-11-14T16:03:02.007Z,3.47
2018-11-14T16:05:32.113Z,3.50
2018-11-14T16:08:02.380Z,3.90
2018-11-14T16:10:31.902Z,4.33
2018-11-14T16:13:00.848Z,3.63
2018-11-14T16:15:34.305Z,3.53
2018-11-14T16:18:03.201Z,4.27
2018-11-14T16:20:31.872Z,9.57
2018-11-14T16:23:00.635Z,4.10
2018-11-14T16:25:29.612Z,3.43
2018-11-14T16:27:59.583Z,4.80
2018-11-14T16:30:35.044Z,4.60
2018-11-14T16:33:06.158Z,3.87
2018-11-14T16:35:35.205Z,4.70
2018-11-14T16:38:04.196Z,4.13
2018-11-14T16:40:34.271Z,4.07
2018-11-14T16:43:04.983Z,3.60
2018-11-14T16:45:34.065Z,4.53
2018-11-14T16:48:03.033Z,4.37
2018-11-14T16:50:32.068Z,4.47
2018-11-14T16:53:00.935Z,4.63
2018-11-14T16:55:30.121Z,5.00
2018-11-14T16:57:59.806Z,4.30
2018-11-14T17:00:29.827Z,4.97
2018-11-14T17:02:59.085Z,4.20
2018-11-14T17:05:28.927Z,4.30
2018-11-14T17:07:57.584Z,4.67
2018-11-14T17:10:26.351Z,5.23
2018-11-14T17:12:56.622Z,4.37
2018-11-14T17:15:26.298Z,4.90
2018-11-14T17:17:55.193Z,5.40
2018-11-14T17:20:24.195Z,5.13
2018-11-14T17:22:54.004Z,5.20
2018-11-14T17:25:23.003Z,5.67
2018-11-14T17:27:51.817Z,6.30
2018-11-14T17:30:22.190Z,5.40
2018-11-14T17:32:51.561Z,6.57
2018-11-14T17:35:20.799Z,6.53
2018-11-14T17:37:50.038Z,6.50
2018-11-14T17:40:22.641Z,5.60
2018-11-14T17:42:52.256Z,4.70
2018-11-14T17:45:23.579Z,5.47
2018-11-14T17:47:52.822Z,5.40
2018-11-14T17:50:25.955Z,4.70
2018-11-14T17:52:55.650Z,5.00
2018-11-14T17:55:25.248Z,6.00
2018-11-14T17:57:54.412Z,5.90
2018-11-14T18:00:24.794Z,5.60
2018-11-14T18:02:53.846Z,5.77
2018-11-14T18:05:24.000Z,5.73
2018-11-14T18:07:53.499Z,7.73
2018-11-14T18:10:24.549Z,8.43
2018-11-14T18:12:54.371Z,6.40
2018-11-14T18:15:23.742Z,6.50
2018-11-14T18:17:53.365Z,6.90
2018-11-14T18:20:24.451Z,7.37
2018-11-14T18:22:53.780Z,7.80
2018-11-14T18:25:22.668Z,6.40
2018-11-14T18:27:51.773Z,7.53
2018-11-14T18:30:22.827Z,6.50
2018-11-14T18:32:52.947Z,6.17
2018-11-14T18:35:22.901Z,7.10
2018-11-14T18:37:52.868Z,7.10
2018-11-14T18:40:25.043Z,6.77
2018-11-14T18:42:54.380Z,5.83
2018-11-14T18:45:25.444Z,7.00
2018-11-14T18:47:55.372Z,7.50
2018-11-14T18:50:25.061Z,7.97
2018-11-14T18:52:54.304Z,6.67
2018-11-14T18:55:24.905Z,8.07
2018-11-14T18:57:55.190Z,7.47
2018-11-14T19:00:26.484Z,9.23
2018-11-14T19:02:55.753Z,7.30
2018-11-14T19:05:25.251Z,7.87
2018-11-14T19:07:54.457Z,7.93
2018-11-14T19:10:24.676Z,10.20
2018-11-14T19:12:53.997Z,9.07
2018-11-14T19:15:26.261Z,9.73
2018-11-14T19:17:55.422Z,9.13
2018-11-14T19:20:25.897Z,9.03
2018-11-14T19:22:55.811Z,10.57
2018-11-14T19:25:26.660Z,12.13
2018-11-14T19:27:55.858Z,11.20
2018-11-14T19:30:26.396Z,13.40
2018-11-14T19:32:56.447Z,10.20
2018-11-14T19:35:26.197Z,9.27
2018-11-14T19:37:56.505Z,9.43
2018-11-14T19:40:26.697Z,12.47
2018-11-14T19:42:57.882Z,10.37
2018-11-14T19:45:28.415Z,8.27
2018-11-14T19:47:57.480Z,8.83
2018-11-14T19:50:26.678Z,7.93
2018-11-14T19:52:55.802Z,8.80
2018-11-14T19:55:26.169Z,8.30
2018-11-14T19:57:56.474Z,8.87
2018-11-14T20:00:27.130Z,9.57
2018-11-14T20:02:56.207Z,8.50
2018-11-14T20:05:25.165Z,8.63
2018-11-14T20:07:54.344Z,8.10
2018-11-14T20:10:24.853Z,8.87
2018-11-14T20:12:54.426Z,6.67
2018-11-14T20:15:24.916Z,9.50
2018-11-14T20:17:54.332Z,10.37
2018-11-14T20:20:24.918Z,7.77
2018-11-14T20:22:53.872Z,8.07
2018-11-14T20:25:22.812Z,8.37
2018-11-14T20:27:51.709Z,8.80
2018-11-14T20:30:25.759Z,10.20
2018-11-14T20:32:55.723Z,9.30
2018-11-14T20:35:25.329Z,9.63
2018-11-14T20:37:54.370Z,9.20
2018-11-14T20:40:23.636Z,8.57
2018-11-14T20:42:53.513Z,9.37
2018-11-14T20:45:25.542Z,9.83
2018-11-14T20:47:54.613Z,10.10
2018-11-14T20:50:24.327Z,9.33
2018-11-14T20:52:58.045Z,9.83
2018-11-14T20:55:27.265Z,9.60
2018-11-14T20:57:56.364Z,11.30
2018-11-14T21:00:31.345Z,8.77
2018-11-14T21:03:00.665Z,8.67
2018-11-14T21:05:30.131Z,9.10
2018-11-14T21:07:59.224Z,9.87
2018-11-14T21:10:29.550Z,9.53
2018-11-14T21:12:58.948Z,11.30
2018-11-14T21:15:29.608Z,9.43
2018-11-14T21:17:59.693Z,9.43
2018-11-14T21:20:28.563Z,10.40
2018-11-14T21:22:57.342Z,9.43
2018-11-14T21:25:26.924Z,9.87
2018-11-14T21:27:56.316Z,9.87
2018-11-14T21:30:26.299Z,9.47
2018-11-14T21:32:55.242Z,9.50
2018-11-14T21:35:26.960Z,8.90
2018-11-14T21:37:57.281Z,9.73
2018-11-14T21:40:26.135Z,9.70
2018-11-14T21:42:55.249Z,10.03
2018-11-14T21:45:25.337Z,9.40
2018-11-14T21:47:59.332Z,9.97
2018-11-14T21:50:28.868Z,8.87
2018-11-14T21:52:57.763Z,8.40
2018-11-14T21:55:26.831Z,10.10
2018-11-14T21:57:55.472Z,8.60
2018-11-14T22:00:29.423Z,9.07
2018-11-14T22:02:58.417Z,8.53
2018-11-14T22:05:27.222Z,9.57
2018-11-14T22:07:56.051Z,8.50
2018-11-14T22:10:25.634Z,9.83
2018-11-14T22:12:54.574Z,9.57
2018-11-14T22:15:24.463Z,8.30
2018-11-14T22:17:53.173Z,9.43
2018-11-14T22:20:23.520Z,9.33
2018-11-14T22:22:52.401Z,9.43
2018-11-14T22:25:22.523Z,8.33
2018-11-14T22:27:51.463Z,9.03
2018-11-14T22:30:22.851Z,8.80
2018-11-14T22:32:51.418Z,8.40
2018-11-14T22:35:21.398Z,10.47
2018-11-14T22:37:50.290Z,9.00
2018-11-14T22:40:20.223Z,9.80
2018-11-14T22:42:49.278Z,10.20
2018-11-14T22:45:20.298Z,9.50
2018-11-14T22:47:49.452Z,9.33
2018-11-14T22:50:19.706Z,9.87
2018-11-14T22:52:48.782Z,9.37
2018-11-14T22:55:18.979Z,9.50
2018-11-14T22:57:48.398Z,11.00
2018-11-14T23:00:24.906Z,9.90
2018-11-14T23:02:54.783Z,9.90
2018-11-14T23:05:23.358Z,9.47
2018-11-14T23:07:53.100Z,9.77
2018-11-14T23:10:22.638Z,9.53
2018-11-14T23:12:51.532Z,10.80
2018-11-14T23:15:21.167Z,11.40
2018-11-14T23:17:49.985Z,10.20
2018-11-14T23:20:19.136Z,9.67
2018-11-14T23:22:48.376Z,8.50
2018-11-14T23:25:17.571Z,8.60
2018-11-14T23:27:47.649Z,9.40
2018-11-14T23:30:17.319Z,9.50
2018-11-14T23:32:47.417Z,8.90
2018-11-14T23:35:22.457Z,9.83
2018-11-14T23:37:52.592Z,10.77
2018-11-14T23:40:21.367Z,10.63
2018-11-14T23:42:50.547Z,9.53
2018-11-14T23:45:20.049Z,10.23
2018-11-14T23:47:49.348Z,10.30
2018-11-14T23:50:22.953Z,10.70
2018-11-14T23:52:52.575Z,10.13
2018-11-14T23:55:21.904Z,10.17
2018-11-14T23:57:50.551Z,10.10
